Time;durP1;ratioP1;P1;durP2;ratioP2;P2;SDS_P1;SDS_P2;PMS_P1;PMS_P2;Temp;Humidity;BMP_temperature;BMP_pressure;BME280_temperature;BME280_humidity;BME280_pressure;Samples;Min_cycle;Max_cycle;Signal;HPM_P1;HPM_P2
2022/05/29 00:02:36;;;;;;;2.23;1.60;;;;;;;;;;10524652;28;20803;-86
2022/05/29 00:07:40;;;;;;;2.42;1.50;;;;;;;;;;10520846;28;20407;-86
2022/05/29 00:12:43;;;;;;;2.87;1.63;;;;;;;;;;10524601;28;20420;-86
2022/05/29 00:17:44;;;;;;;2.22;1.33;;;;;;;;;;10525434;28;20898;-86
2022/05/29 00:22:48;;;;;;;3.47;1.75;;;;;;;;;;10519346;28;20446;-86
2022/05/29 00:27:49;;;;;;;2.78;1.73;;;;;;;;;;10517801;28;20396;-86
2022/05/29 00:32:51;;;;;;;3.03;1.60;;;;;;;;;;10523506;28;20423;-86
2022/05/29 00:37:55;;;;;;;2.10;1.60;;;;;;;;;;10529272;28;20479;-85
2022/05/29 00:42:56;;;;;;;2.10;1.85;;;;;;;;;;10523474;28;20442;-86
2022/05/29 00:47:59;;;;;;;4.15;1.90;;;;;;;;;;10524066;28;20430;-85
2022/05/29 00:53:04;;;;;;;2.85;2.00;;;;;;;;;;10522693;28;20466;-85
2022/05/29 00:58:06;;;;;;;3.17;1.90;;;;;;;;;;10523154;28;20404;-86
2022/05/29 01:03:08;;;;;;;2.90;2.10;;;;;;;;;;10519904;28;20854;-85
2022/05/29 01:08:15;;;;;;;3.03;1.90;;;;;;;;;;10523341;28;20812;-85
2022/05/29 01:13:24;;;;;;;2.67;1.80;;;;;;;;;;10522651;28;20447;-85
2022/05/29 01:18:44;;;;;;;3.70;2.03;;;;;;;;;;10523089;28;20487;-83
2022/05/29 01:24:25;;;;;;;3.45;2.20;;;;;;;;;;10519542;28;20755;-85
2022/05/29 01:29:38;;;;;;;2.20;1.80;;;;;;;;;;10496016;28;20785;-85
2022/05/29 01:34:44;;;;;;;2.50;1.88;;;;;;;;;;10528697;28;20404;-85
2022/05/29 01:39:55;;;;;;;2.25;2.03;;;;;;;;;;10528074;28;20910;-85
2022/05/29 01:45:06;;;;;;;3.17;1.90;;;;;;;;;;10529765;28;20475;-84
2022/05/29 01:50:17;;;;;;;3.10;2.07;;;;;;;;;;10531558;28;20411;-85
2022/05/29 01:55:24;;;;;;;3.15;1.90;;;;;;;;;;10528374;28;20408;-85
2022/05/29 02:00:28;;;;;;;2.33;1.93;;;;;;;;;;10528175;28;20420;-84
2022/05/29 02:05:34;;;;;;;2.90;2.13;;;;;;;;;;10531748;28;20867;-85
2022/05/29 02:10:41;;;;;;;3.10;2.28;;;;;;;;;;10530662;28;20416;-84
2022/05/29 02:15:49;;;;;;;3.70;2.45;;;;;;;;;;10531641;28;20408;-85
2022/05/29 02:20:57;;;;;;;3.60;2.40;;;;;;;;;;10531527;28;20427;-85
2022/05/29 02:26:01;;;;;;;4.25;2.38;;;;;;;;;;10530816;28;20404;-85
2022/05/29 02:31:15;;;;;;;4.60;2.33;;;;;;;;;;10530586;28;20414;-85
2022/05/29 02:36:29;;;;;;;3.20;2.67;;;;;;;;;;10531010;28;20407;-84
2022/05/29 02:41:40;;;;;;;2.78;2.20;;;;;;;;;;10529831;28;20784;-85
2022/05/29 02:46:49;;;;;;;3.50;2.47;;;;;;;;;;10529274;28;20409;-85
2022/05/29 02:51:53;;;;;;;4.50;2.45;;;;;;;;;;10516225;28;20495;-84
2022/05/29 02:56:56;;;;;;;2.60;2.25;;;;;;;;;;10529155;28;20473;-85
2022/05/29 03:02:09;;;;;;;3.87;2.57;;;;;;;;;;10529409;28;20431;-85
2022/05/29 03:07:21;;;;;;;3.60;2.80;;;;;;;;;;10515819;28;20404;-85
2022/05/29 03:12:31;;;;;;;2.83;2.50;;;;;;;;;;10514909;28;20414;-86
2022/05/29 03:17:41;;;;;;;2.60;2.40;;;;;;;;;;10516038;28;20396;-85
2022/05/29 03:22:53;;;;;;;4.10;2.30;;;;;;;;;;10514118;28;20503;-85
2022/05/29 03:27:58;;;;;;;2.33;2.13;;;;;;;;;;10527123;28;20958;-86
2022/05/29 03:33:04;;;;;;;2.50;2.30;;;;;;;;;;10528128;28;20888;-85
2022/05/29 03:38:06;;;;;;;2.93;2.07;;;;;;;;;;10528107;28;20412;-85
2022/05/29 03:43:08;;;;;;;3.78;2.30;;;;;;;;;;10528131;28;20982;-85
2022/05/29 03:48:11;;;;;;;2.50;2.00;;;;;;;;;;10528415;28;20686;-85
2022/05/29 03:53:13;;;;;;;2.38;2.00;;;;;;;;;;10527482;28;20406;-85
2022/05/29 03:58:14;;;;;;;2.65;2.10;;;;;;;;;;10527687;28;20483;-85
2022/05/29 04:03:18;;;;;;;2.70;2.00;;;;;;;;;;10523892;28;20507;-86
2022/05/29 04:13:43;;;;;;;3.07;1.97;;;;;;;;;;10524825;28;20448;-85
2022/05/29 04:18:46;;;;;;;2.97;1.90;;;;;;;;;;10522269;28;20483;-86
2022/05/29 04:23:48;;;;;;;2.75;1.90;;;;;;;;;;10523766;28;20412;-86
2022/05/29 04:28:50;;;;;;;2.63;2.10;;;;;;;;;;10524676;28;20402;-85
2022/05/29 04:33:53;;;;;;;2.53;2.10;;;;;;;;;;10523987;28;20430;-85
2022/05/29 04:38:57;;;;;;;3.60;2.20;;;;;;;;;;10523985;28;20405;-85
2022/05/29 04:43:58;;;;;;;2.30;2.10;;;;;;;;;;10523656;28;20845;-85
2022/05/29 04:49:02;;;;;;;3.13;2.08;;;;;;;;;;10524070;28;20414;-86
2022/05/29 04:54:04;;;;;;;2.60;2.00;;;;;;;;;;10523620;28;20421;-85
2022/05/29 04:59:06;;;;;;;2.90;2.08;;;;;;;;;;10523519;28;20831;-86
2022/05/29 05:04:09;;;;;;;3.00;2.03;;;;;;;;;;10523367;28;20543;-86
2022/05/29 05:09:11;;;;;;;3.20;1.60;;;;;;;;;;10517296;28;20824;-85
2022/05/29 05:14:13;;;;;;;2.28;1.95;;;;;;;;;;10519615;28;20415;-85
2022/05/29 05:19:17;;;;;;;2.60;1.73;;;;;;;;;;10522206;28;20568;-85
2022/05/29 05:24:20;;;;;;;3.08;1.90;;;;;;;;;;10521201;28;20430;-86
2022/05/29 05:29:22;;;;;;;1.92;1.83;;;;;;;;;;10519325;28;20892;-86
2022/05/29 05:34:27;;;;;;;2.47;1.70;;;;;;;;;;10521738;28;20388;-85
2022/05/29 05:39:28;;;;;;;4.53;1.90;;;;;;;;;;10521608;28;20420;-86
2022/05/29 05:44:30;;;;;;;1.90;1.73;;;;;;;;;;10521954;28;20420;-85
2022/05/29 05:49:33;;;;;;;3.03;1.80;;;;;;;;;;10521528;28;20902;-85
2022/05/29 05:54:35;;;;;;;2.50;1.80;;;;;;;;;;10520935;28;20491;-86
2022/05/29 05:59:38;;;;;;;2.70;1.70;;;;;;;;;;10521940;28;20719;-85
2022/05/29 06:04:43;;;;;;;3.53;1.60;;;;;;;;;;10521346;28;20424;-87
2022/05/29 06:09:45;;;;;;;2.07;1.60;;;;;;;;;;10513482;28;20514;-86
2022/05/29 06:14:47;;;;;;;3.33;1.77;;;;;;;;;;10522826;28;20759;-86
2022/05/29 06:19:50;;;;;;;2.67;1.60;;;;;;;;;;10525846;28;20799;-86
2022/05/29 06:24:52;;;;;;;1.70;1.60;;;;;;;;;;10529143;28;20424;-86
2022/05/29 06:29:54;;;;;;;2.03;1.80;;;;;;;;;;10529398;28;20767;-86
2022/05/29 06:34:58;;;;;;;2.80;1.73;;;;;;;;;;10529458;28;20405;-86
2022/05/29 06:40:00;;;;;;;2.80;1.80;;;;;;;;;;10519113;28;20423;-86
2022/05/29 06:45:02;;;;;;;2.35;1.65;;;;;;;;;;10498394;28;20394;-86
2022/05/29 06:50:06;;;;;;;3.80;1.70;;;;;;;;;;10506007;28;21039;-90
2022/05/29 06:55:10;;;;;;;2.37;1.80;;;;;;;;;;10508592;28;20402;-90
2022/05/29 07:10:55;;;;;;;1.92;1.70;;;;;;;;;;10526067;28;20396;-89
2022/05/29 07:15:57;;;;;;;1.73;1.50;;;;;;;;;;10528290;28;20408;-88
2022/05/29 07:21:02;;;;;;;3.97;1.70;;;;;;;;;;10523634;28;20512;-86
2022/05/29 07:26:04;;;;;;;1.70;1.60;;;;;;;;;;10519806;28;20400;-87
2022/05/29 07:31:06;;;;;;;2.50;1.80;;;;;;;;;;10533943;28;20516;-87
2022/05/29 07:36:12;;;;;;;2.50;1.80;;;;;;;;;;10508041;28;20404;-87
2022/05/29 07:46:33;;;;;;;3.47;1.67;;;;;;;;;;10516183;28;20721;-78
2022/05/29 07:51:36;;;;;;;2.60;1.67;;;;;;;;;;10528281;28;20759;-88
2022/05/29 07:56:38;;;;;;;3.40;1.70;;;;;;;;;;10507402;28;20487;-87
2022/05/29 08:01:40;;;;;;;3.67;1.73;;;;;;;;;;10505341;28;20775;-89
2022/05/29 08:06:44;;;;;;;2.50;1.80;;;;;;;;;;10516978;28;20974;-89
2022/05/29 08:11:46;;;;;;;2.25;1.70;;;;;;;;;;10519460;28;20776;-88
2022/05/29 08:16:48;;;;;;;2.80;1.60;;;;;;;;;;10508971;28;20415;-86
2022/05/29 08:21:52;;;;;;;2.40;1.50;;;;;;;;;;10503577;28;21037;-87
2022/05/29 08:32:14;;;;;;;4.30;1.40;;;;;;;;;;10508643;28;20405;-89
2022/05/29 08:37:17;;;;;;;2.20;1.30;;;;;;;;;;10513035;28;20499;-88
2022/05/29 08:42:20;;;;;;;2.08;1.10;;;;;;;;;;10516175;28;20446;-90
2022/05/29 08:47:26;;;;;;;2.38;1.13;;;;;;;;;;10518837;28;20496;-89
2022/05/29 08:52:47;;;;;;;4.63;1.03;;;;;;;;;;10518314;28;20781;-86
2022/05/29 08:58:01;;;;;;;3.00;1.42;;;;;;;;;;10514499;28;20412;-87
2022/05/29 09:03:19;;;;;;;1.27;0.98;;;;;;;;;;10518440;28;20507;-87
2022/05/29 09:08:27;;;;;;;2.25;0.98;;;;;;;;;;10516354;28;20423;-88
2022/05/29 09:13:37;;;;;;;3.63;1.20;;;;;;;;;;10517763;28;20412;-90
2022/05/29 09:18:42;;;;;;;10.00;1.50;;;;;;;;;;10519113;28;20521;-88
2022/05/29 09:23:58;;;;;;;1.23;0.98;;;;;;;;;;10514964;28;20410;-88
2022/05/29 09:29:00;;;;;;;1.20;1.00;;;;;;;;;;10514701;28;20424;-89
2022/05/29 09:34:02;;;;;;;2.03;1.07;;;;;;;;;;10518636;28;20926;-87
2022/05/29 09:39:09;;;;;;;2.42;1.10;;;;;;;;;;10518923;28;20511;-88
2022/05/29 09:44:15;;;;;;;2.10;0.83;;;;;;;;;;10522074;28;20489;-88
2022/05/29 09:54:50;;;;;;;2.80;1.00;;;;;;;;;;10524451;28;20416;-88
2022/05/29 10:00:08;;;;;;;2.28;0.95;;;;;;;;;;10523126;28;20499;-88
2022/05/29 10:05:24;;;;;;;1.87;1.00;;;;;;;;;;10522828;28;20504;-88
2022/05/29 10:10:34;;;;;;;2.47;0.97;;;;;;;;;;10525920;28;20412;-79
2022/05/29 10:15:39;;;;;;;1.15;0.90;;;;;;;;;;10527860;28;20430;-79
2022/05/29 10:20:43;;;;;;;1.27;1.10;;;;;;;;;;10527642;28;20441;-80
2022/05/29 10:25:59;;;;;;;2.50;1.00;;;;;;;;;;10523859;28;21110;-88
2022/05/29 10:31:03;;;;;;;1.80;1.30;;;;;;;;;;10528624;28;20401;-88
2022/05/29 10:36:17;;;;;;;1.70;1.10;;;;;;;;;;10531878;28;20392;-89
2022/05/29 10:41:34;;;;;;;3.15;0.93;;;;;;;;;;10526476;28;20404;-90
2022/05/29 10:46:43;;;;;;;2.13;0.93;;;;;;;;;;10523169;28;22143;-88
2022/05/29 10:52:06;;;;;;;1.27;1.00;;;;;;;;;;10526413;28;20774;-90
2022/05/29 10:57:24;;;;;;;3.38;1.13;;;;;;;;;;10528091;28;20412;-89
2022/05/29 11:08:12;;;;;;;1.40;1.20;;;;;;;;;;10526082;28;20408;-90
2022/05/29 11:13:29;;;;;;;1.50;1.20;;;;;;;;;;10521091;28;20457;-91
2022/05/29 11:18:59;;;;;;;2.38;1.33;;;;;;;;;;10518714;28;20903;-91
2022/05/29 11:24:19;;;;;;;1.20;0.90;;;;;;;;;;10497404;28;20555;-89
2022/05/29 11:29:38;;;;;;;1.50;0.90;;;;;;;;;;10525177;28;20394;-90
2022/05/29 11:34:48;;;;;;;2.17;1.10;;;;;;;;;;10541597;28;20385;-89
2022/05/29 11:39:54;;;;;;;1.33;1.10;;;;;;;;;;10571707;28;20396;-91
2022/05/29 11:45:06;;;;;;;1.70;1.20;;;;;;;;;;10534336;28;20420;-89
2022/05/29 11:55:41;;;;;;;1.73;1.00;;;;;;;;;;10516688;28;20397;-90
2022/05/29 12:00:48;;;;;;;1.83;1.25;;;;;;;;;;10520707;28;20488;-89
2022/05/29 12:05:56;;;;;;;1.40;1.10;;;;;;;;;;10516753;28;20506;-91
2022/05/29 12:11:05;;;;;;;2.30;1.30;;;;;;;;;;10519699;28;20434;-90
2022/05/29 12:16:11;;;;;;;2.17;1.30;;;;;;;;;;10521817;28;20408;-90
2022/05/29 12:21:17;;;;;;;2.30;1.00;;;;;;;;;;10525766;28;20407;-90
2022/05/29 12:26:24;;;;;;;2.60;1.30;;;;;;;;;;10524454;28;20408;-90
2022/05/29 12:31:32;;;;;;;1.40;0.85;;;;;;;;;;10525541;28;20410;-89
2022/05/29 12:37:08;;;;;;;1.05;1.00;;;;;;;;;;10525198;28;20470;-92
2022/05/29 12:42:33;;;;;;;1.87;1.10;;;;;;;;;;10516869;28;20445;-90
2022/05/29 12:48:17;;;;;;;1.08;0.98;;;;;;;;;;10523754;28;20405;-90
2022/05/29 12:53:48;;;;;;;1.92;1.30;;;;;;;;;;10476347;28;20400;-92
2022/05/29 12:59:23;;;;;;;2.10;1.30;;;;;;;;;;10522133;28;20403;-89
2022/05/29 13:05:05;;;;;;;1.43;1.33;;;;;;;;;;10495879;28;20420;-90
2022/05/29 13:10:18;;;;;;;1.70;1.40;;;;;;;;;;10521960;28;20401;-88
2022/05/29 13:15:28;;;;;;;1.90;1.20;;;;;;;;;;10519883;28;20918;-85
2022/05/29 13:20:30;;;;;;;1.55;1.30;;;;;;;;;;10519012;28;20396;-86
2022/05/29 13:26:17;;;;;;;1.35;1.17;;;;;;;;;;10513925;28;20417;-86
2022/05/29 13:31:20;;;;;;;2.10;1.37;;;;;;;;;;10491234;28;20408;-80
2022/05/29 13:37:06;;;;;;;1.92;1.67;;;;;;;;;;10519402;28;20506;-85
2022/05/29 13:42:25;;;;;;;1.50;1.40;;;;;;;;;;10518539;28;20412;-86
2022/05/29 13:48:06;;;;;;;2.00;1.60;;;;;;;;;;10525487;28;20890;-87
2022/05/29 13:53:13;;;;;;;1.67;1.58;;;;;;;;;;10529873;28;20400;-87
2022/05/29 14:03:59;;;;;;;1.50;1.40;;;;;;;;;;10515040;28;20410;-87
2022/05/29 14:09:06;;;;;;;3.10;1.50;;;;;;;;;;10509565;28;20491;-86
2022/05/29 14:14:41;;;;;;;2.58;1.45;;;;;;;;;;10514592;28;20433;-87
2022/05/29 14:20:13;;;;;;;1.60;1.35;;;;;;;;;;10504069;28;20505;-86
2022/05/29 14:25:27;;;;;;;2.33;1.33;;;;;;;;;;10503271;28;20412;-85
2022/05/29 14:30:42;;;;;;;3.00;1.50;;;;;;;;;;10512594;28;20400;-85
2022/05/29 14:35:56;;;;;;;3.72;1.45;;;;;;;;;;10509272;28;20513;-86
2022/05/29 14:41:01;;;;;;;1.65;1.40;;;;;;;;;;10507779;28;20488;-85
2022/05/29 14:46:14;;;;;;;1.53;1.40;;;;;;;;;;10513920;28;20421;-87
2022/05/29 14:51:24;;;;;;;1.73;1.37;;;;;;;;;;10522086;28;20403;-86
2022/05/29 14:56:35;;;;;;;1.60;1.50;;;;;;;;;;10522231;28;20855;-85
2022/05/29 15:01:39;;;;;;;1.77;1.42;;;;;;;;;;10527795;28;20449;-86
2022/05/29 15:12:07;;;;;;;1.30;1.20;;;;;;;;;;10515927;28;20408;-86
2022/05/29 15:17:09;;;;;;;1.30;1.20;;;;;;;;;;10518377;28;20407;-86
2022/05/29 15:27:40;;;;;;;1.70;1.40;;;;;;;;;;10519579;28;20404;-87
2022/05/29 15:32:43;;;;;;;1.35;1.25;;;;;;;;;;10528259;28;20384;-86
2022/05/29 15:38:00;;;;;;;2.70;1.33;;;;;;;;;;10526592;28;20917;-86
2022/05/29 15:43:17;;;;;;;1.20;1.10;;;;;;;;;;10528952;28;20454;-86
2022/05/29 15:48:48;;;;;;;1.35;1.25;;;;;;;;;;10513092;28;20909;-88
2022/05/29 15:54:20;;;;;;;2.03;1.50;;;;;;;;;;10499794;28;20736;-86
2022/05/29 15:59:43;;;;;;;1.33;1.23;;;;;;;;;;10510273;28;20411;-86
2022/05/29 16:04:47;;;;;;;1.50;1.40;;;;;;;;;;10503734;28;20864;-87
2022/05/29 16:09:56;;;;;;;1.33;1.23;;;;;;;;;;10510247;28;20450;-86
2022/05/29 16:14:59;;;;;;;1.55;1.10;;;;;;;;;;10509982;28;20777;-88
2022/05/29 16:20:08;;;;;;;1.20;1.10;;;;;;;;;;10513726;28;20398;-86
2022/05/29 16:25:21;;;;;;;1.25;1.08;;;;;;;;;;10511850;28;20791;-87
2022/05/29 16:30:26;;;;;;;1.42;1.10;;;;;;;;;;10523260;28;20400;-86
2022/05/29 16:35:40;;;;;;;1.35;1.20;;;;;;;;;;10527140;28;20882;-87
2022/05/29 16:51:54;;;;;;;2.00;1.30;;;;;;;;;;10516609;28;20389;-86
2022/05/29 16:57:07;;;;;;;2.07;1.50;;;;;;;;;;10513481;28;20980;-87
2022/05/29 17:02:25;;;;;;;1.53;1.43;;;;;;;;;;10522508;28;20884;-86
2022/05/29 17:07:30;;;;;;;1.70;1.35;;;;;;;;;;10517194;28;20449;-87
2022/05/29 17:12:37;;;;;;;2.03;1.30;;;;;;;;;;10522525;28;20430;-86
2022/05/29 17:17:39;;;;;;;2.03;1.13;;;;;;;;;;10514770;28;20866;-88
2022/05/29 17:22:47;;;;;;;1.50;1.40;;;;;;;;;;10509480;28;20418;-86
2022/05/29 17:27:58;;;;;;;1.53;1.20;;;;;;;;;;10514908;28;20681;-86
2022/05/29 17:33:09;;;;;;;1.50;1.20;;;;;;;;;;10515972;28;20398;-86
2022/05/29 17:38:18;;;;;;;1.50;1.30;;;;;;;;;;10504314;28;20781;-88
2022/05/29 17:43:23;;;;;;;1.23;1.13;;;;;;;;;;10507978;28;20822;-87
2022/05/29 17:48:37;;;;;;;1.48;1.10;;;;;;;;;;10507395;28;20408;-85
2022/05/29 17:53:52;;;;;;;2.00;1.00;;;;;;;;;;10512684;28;20418;-87
2022/05/29 17:58:56;;;;;;;1.25;1.08;;;;;;;;;;10503353;28;20414;-87
2022/05/29 18:04:00;;;;;;;2.03;1.00;;;;;;;;;;10497278;28;20424;-85
2022/05/29 18:09:04;;;;;;;1.83;1.10;;;;;;;;;;10496358;28;20484;-87
2022/05/29 18:14:07;;;;;;;1.10;1.00;;;;;;;;;;10508450;28;20400;-86
2022/05/29 18:19:09;;;;;;;1.20;1.10;;;;;;;;;;10528691;28;20400;-87
2022/05/29 18:24:11;;;;;;;1.87;1.27;;;;;;;;;;10530462;28;20466;-89
2022/05/29 18:29:15;;;;;;;1.58;1.30;;;;;;;;;;10525938;28;20404;-87
2022/05/29 18:34:17;;;;;;;1.63;1.35;;;;;;;;;;10518913;28;20438;-87
2022/05/29 18:39:19;;;;;;;2.22;1.20;;;;;;;;;;10516305;28;20424;-89
2022/05/29 18:44:22;;;;;;;2.15;1.20;;;;;;;;;;10515217;28;20408;-87
2022/05/29 18:49:25;;;;;;;2.33;1.10;;;;;;;;;;10510321;28;20479;-87
2022/05/29 18:54:29;;;;;;;1.20;1.10;;;;;;;;;;10506519;28;20992;-86
2022/05/29 18:59:33;;;;;;;4.35;1.38;;;;;;;;;;10503530;28;20495;-87
2022/05/29 19:04:37;;;;;;;1.75;1.20;;;;;;;;;;10504488;28;20485;-87
2022/05/29 19:09:41;;;;;;;1.77;1.30;;;;;;;;;;10509836;28;20459;-86
2022/05/29 19:14:47;;;;;;;1.63;1.33;;;;;;;;;;10506291;28;20488;-88
2022/05/29 19:19:50;;;;;;;1.30;1.17;;;;;;;;;;10517602;28;20485;-86
2022/05/29 19:24:56;;;;;;;3.00;1.40;;;;;;;;;;10519842;28;20930;-87
2022/05/29 19:30:05;;;;;;;2.15;1.10;;;;;;;;;;10521257;28;20412;-86
2022/05/29 19:35:12;;;;;;;1.95;1.30;;;;;;;;;;10533205;28;20414;-88
2022/05/29 19:40:21;;;;;;;1.30;1.20;;;;;;;;;;10515951;28;20412;-88
2022/05/29 19:45:31;;;;;;;2.93;1.63;;;;;;;;;;10511380;28;20430;-88
2022/05/29 19:50:36;;;;;;;1.93;1.70;;;;;;;;;;10503252;28;20906;-93
2022/05/29 19:55:41;;;;;;;2.08;1.40;;;;;;;;;;10529812;28;20417;-91
2022/05/29 20:00:50;;;;;;;1.50;1.15;;;;;;;;;;10510809;28;20776;-92
2022/05/29 20:05:56;;;;;;;1.20;1.10;;;;;;;;;;10520355;28;20435;-93
2022/05/29 20:11:10;;;;;;;1.60;1.10;;;;;;;;;;10522206;28;20554;-92
2022/05/29 20:16:22;;;;;;;1.45;1.20;;;;;;;;;;10522836;28;20434;-92
2022/05/29 20:21:27;;;;;;;1.40;1.00;;;;;;;;;;10524726;28;20411;-93
2022/05/29 20:26:33;;;;;;;2.03;1.10;;;;;;;;;;10537535;28;20411;-92
2022/05/29 20:31:42;;;;;;;1.30;1.20;;;;;;;;;;10520044;28;20422;-93
2022/05/29 20:36:46;;;;;;;1.40;1.30;;;;;;;;;;10523431;28;20396;-94
2022/05/29 20:41:49;;;;;;;1.53;1.40;;;;;;;;;;10529821;28;20867;-92
2022/05/29 20:52:18;;;;;;;2.25;1.10;;;;;;;;;;10526950;28;20412;-92
2022/05/29 20:57:22;;;;;;;1.77;1.23;;;;;;;;;;10520806;28;20418;-92
2022/05/29 21:02:26;;;;;;;1.30;0.90;;;;;;;;;;10526622;28;20407;-90
2022/05/29 21:07:28;;;;;;;1.17;1.00;;;;;;;;;;10537682;28;20503;-92
2022/05/29 21:12:30;;;;;;;0.98;0.85;;;;;;;;;;10526606;28;20420;-93
2022/05/29 21:17:33;;;;;;;1.80;0.90;;;;;;;;;;10514450;28;20463;-94
2022/05/29 21:22:35;;;;;;;1.15;0.88;;;;;;;;;;10521833;28;20420;-92
2022/05/29 21:27:37;;;;;;;1.50;0.90;;;;;;;;;;10524602;28;20424;-92
2022/05/29 21:32:41;;;;;;;1.77;0.80;;;;;;;;;;10528404;28;20503;-92
2022/05/29 21:37:55;;;;;;;0.88;0.80;;;;;;;;;;10521970;28;20503;-91
2022/05/29 21:42:57;;;;;;;1.50;0.80;;;;;;;;;;10524455;28;20507;-92
2022/05/29 21:48:01;;;;;;;0.90;0.80;;;;;;;;;;10522522;28;20783;-92
2022/05/29 21:53:03;;;;;;;2.28;1.08;;;;;;;;;;10529421;28;20412;-92
2022/05/29 21:58:05;;;;;;;1.73;1.30;;;;;;;;;;10532739;28;20491;-92
2022/05/29 22:03:09;;;;;;;3.13;1.60;;;;;;;;;;10528931;28;20461;-92
2022/05/29 22:08:11;;;;;;;1.95;1.70;;;;;;;;;;10523438;28;20404;-92
2022/05/29 22:13:17;;;;;;;2.28;1.90;;;;;;;;;;10527307;28;20418;-92
2022/05/29 22:18:21;;;;;;;4.38;2.50;;;;;;;;;;10520045;28;20392;-91
2022/05/29 22:23:24;;;;;;;3.07;2.10;;;;;;;;;;10527652;28;20422;-91
2022/05/29 22:28:26;;;;;;;2.38;2.00;;;;;;;;;;10514200;28;20412;-92
2022/05/29 22:33:35;;;;;;;1.92;1.70;;;;;;;;;;10522593;28;20579;-91
2022/05/29 22:38:38;;;;;;;1.83;1.70;;;;;;;;;;10527592;28;20469;-91
2022/05/29 22:43:41;;;;;;;2.47;1.70;;;;;;;;;;10536624;28;20408;-92
2022/05/29 22:48:58;;;;;;;1.63;1.53;;;;;;;;;;10526790;28;20908;-90
2022/05/29 22:54:08;;;;;;;1.95;1.75;;;;;;;;;;10531183;28;20942;-92
2022/05/29 22:59:10;;;;;;;1.58;1.45;;;;;;;;;;10558243;28;20400;-92
2022/05/29 23:04:26;;;;;;;2.08;1.60;;;;;;;;;;10508254;28;20404;-91
2022/05/29 23:09:28;;;;;;;1.88;1.30;;;;;;;;;;10528717;28;20416;-91
2022/05/29 23:14:31;;;;;;;1.45;1.30;;;;;;;;;;10529154;28;20416;-93
2022/05/29 23:19:34;;;;;;;1.40;1.30;;;;;;;;;;10529947;28;20396;-91
2022/05/29 23:24:39;;;;;;;1.77;1.40;;;;;;;;;;10524762;28;20420;-91
2022/05/29 23:35:04;;;;;;;3.50;1.70;;;;;;;;;;10528525;28;20381;-92
2022/05/29 23:40:08;;;;;;;2.63;1.70;;;;;;;;;;10518087;28;20404;-90
2022/05/29 23:45:35;;;;;;;2.53;1.60;;;;;;;;;;10531286;28;20780;-91
2022/05/29 23:50:38;;;;;;;2.13;1.90;;;;;;;;;;10531015;28;20487;-91
2022/05/29 23:55:41;;;;;;;2.35;2.00;;;;;;;;;;10529879;28;20403;-90
